BRIO2: Bridgeport 4E

                                SHEF ID:       BRIO2     Canadian River at Bridgeport, OK
STATION TYPE:
Regulating: Stage = 15.00, Flow = 8372

STAGE RIV-FLOW BAT-LOAD
ft cfs volt
Ccp-Rev Ccp-Rev Ccp-Rev
(America/Chicago)
10/30 00:00 10.41 317 12.48
10/30 01:00 10.41 317 12.48
10/30 02:00 10.42 321 12.48
10/30 03:00 10.43 326 12.48
10/30 04:00 10.46 339 12.48
10/30 05:00 10.50 357 12.48
10/30 06:00 10.53 370 12.47
10/30 07:00 10.59 395 12.47
10/30 08:00 10.68 435 12.47
10/30 09:00 10.76 472 13.49
10/30 10:00 10.81 496 13.77
10/30 11:00 10.87 527 13.57
10/30 12:00 10.90 543 13.47
10/30 13:00 10.93 559 13.47
10/30 14:00 10.93 559 13.47
10/30 15:00 10.95 569 13.48
10/30 16:00 10.96 575 13.45
10/30 17:00 10.95 569 13.27
10/30 18:00 10.95 569 13.11
10/30 19:00 10.95 569 12.90
10/30 20:00 10.93 559 12.81
10/30 21:00 10.92 553 12.77
10/30 22:00 10.90 543 12.73
10/30 23:00 10.88 532 12.71
Data processed at Tue 31Oct2023 04:55 GMT

Parsing this webpage?

Checkout our new Data API! CWMSDataAPI (CDA)

All information presented herein is the property of the government of the United States of America and may be revised or deleted at any time without prior notice. Dissemination of this information without the expressed written consent of the Public Affairs Office, Tulsa District U.S. Army Corps of Engineers is strictly prohibited. These data are gathered electronically and, as presented, have NOT undergone any form of quality control. These data are NOT guaranteed to be valid or correct.